createdAt,value
2022-08-22T00:02:19.606Z,100250.97
2022-08-22T00:02:42.245Z,100244.75
2022-08-22T00:02:55.765Z,100261.44
2022-08-22T00:02:59.906Z,100255.09
2022-08-22T00:03:03.863Z,100257.81
2022-08-22T00:03:03.866Z,100248.91
2022-08-22T00:05:02.919Z,100242.84
2022-08-22T00:07:43.283Z,100254.38
2022-08-22T00:10:25.302Z,100259.81
2022-08-22T00:13:07.671Z,100258.09
2022-08-22T00:15:43.622Z,100261.47
2022-08-22T00:18:16.019Z,100263.84
2022-08-22T00:20:58.282Z,100254.38
2022-08-22T00:23:32.236Z,100250.97
2022-08-22T00:26:34.167Z,100252.63
2022-08-22T00:29:07.033Z,100247.56
2022-08-22T00:31:43.768Z,100257.38
2022-08-22T00:34:25.376Z,100249.63
2022-08-22T00:37:00.167Z,100253.50
2022-08-22T00:39:36.944Z,100260.47
2022-08-22T00:42:48.863Z,100266.72
2022-08-22T00:45:34.953Z,100255.69
2022-08-22T00:48:08.171Z,100255.34
2022-08-22T00:51:15.463Z,100255.03
2022-08-22T00:54:16.752Z,100252.69
2022-08-22T00:57:23.241Z,100250.31
2022-08-22T01:00:13.530Z,100253.03
2022-08-22T01:03:02.289Z,100249.97
2022-08-22T01:05:55.763Z,100253.03
2022-08-22T01:08:38.778Z,100244.59
2022-08-22T01:11:44.182Z,100252.53
2022-08-22T01:14:14.079Z,100256.63
2022-08-22T01:17:00.867Z,100248.66
2022-08-22T01:19:48.953Z,100254.81
2022-08-22T01:22:24.866Z,100259.84
2022-08-22T01:25:21.442Z,100257.16
2022-08-22T01:28:17.708Z,100255.31
2022-08-22T01:31:22.889Z,100262.56
2022-08-22T01:34:27.238Z,100270.03
2022-08-22T01:37:15.989Z,100271.34
2022-08-22T01:39:49.031Z,100273.41
2022-08-22T01:42:39.837Z,100272.19
2022-08-22T01:45:51.750Z,100269.13
2022-08-22T01:48:38.790Z,100266.53
2022-08-22T01:51:28.600Z,100261.81
2022-08-22T01:54:13.776Z,100268.13
2022-08-22T01:56:44.980Z,100268.94
2022-08-22T01:59:35.218Z,100269.31
2022-08-22T02:02:12.090Z,100276.59
2022-08-22T02:04:47.326Z,100283.50
2022-08-22T02:07:48.695Z,100280.81
2022-08-22T02:10:25.506Z,100279.31
2022-08-22T02:13:08.209Z,100276.13
2022-08-22T02:15:41.444Z,100279.66
2022-08-22T02:18:21.290Z,100277.25
2022-08-22T02:20:48.684Z,100273.16
2022-08-22T02:23:46.680Z,100281.13
2022-08-22T02:26:21.072Z,100279.63
2022-08-22T02:28:57.058Z,100286.53
2022-08-22T02:31:56.304Z,100278.47
2022-08-22T02:34:28.834Z,100276.13
2022-08-22T02:37:23.342Z,100286.31
2022-08-22T02:40:02.362Z,100273.66
2022-08-22T02:42:44.661Z,100288.38
2022-08-22T02:45:26.892Z,100282.28
2022-08-22T02:48:21.802Z,100279.91
2022-08-22T02:51:01.756Z,100279.41
2022-08-22T02:53:45.996Z,100278.59
2022-08-22T02:56:31.621Z,100273.50
2022-08-22T02:59:32.030Z,100281.13
2022-08-22T03:02:56.510Z,100282.13
2022-08-22T03:05:44.890Z,100279.25
2022-08-22T03:08:22.000Z,100280.47
2022-08-22T03:11:24.084Z,100280.97
2022-08-22T03:14:07.552Z,100277.28
2022-08-22T03:16:54.553Z,100279.69
2022-08-22T03:19:30.365Z,100270.53
2022-08-22T03:22:08.403Z,100274.13
2022-08-22T03:24:57.016Z,100269.56
2022-08-22T03:27:34.486Z,100271.63
2022-08-22T03:30:23.671Z,100283.13
2022-08-22T03:33:14.121Z,100273.84
2022-08-22T03:35:47.094Z,100280.44
2022-08-22T03:38:29.870Z,100285.69
2022-08-22T03:41:15.059Z,100288.22
2022-08-22T03:44:19.603Z,100282.31
2022-08-22T03:46:52.976Z,100282.78
2022-08-22T03:49:44.518Z,100287.88
2022-08-22T03:52:29.692Z,100281.25
2022-08-22T03:55:12.219Z,100280.91
2022-08-22T03:58:05.846Z,100290.00
2022-08-22T04:01:08.589Z,100281.28
2022-08-22T04:03:39.797Z,100292.44
2022-08-22T04:06:13.103Z,100289.69
2022-08-22T04:09:11.580Z,100286.63
2022-08-22T04:12:00.842Z,100286.06
2022-08-22T04:14:41.257Z,100286.19
2022-08-22T04:17:17.751Z,100291.19
2022-08-22T04:20:16.751Z,100291.47
2022-08-22T04:23:19.417Z,100297.53
2022-08-22T04:26:11.971Z,100293.06
2022-08-22T04:28:47.803Z,100289.97
2022-08-22T04:31:22.728Z,100305.88
2022-08-22T04:33:57.699Z,100304.41
2022-08-22T04:36:27.773Z,100308.09
2022-08-22T04:39:03.537Z,100296.97
2022-08-22T04:41:42.568Z,100313.94
2022-08-22T04:44:20.750Z,100299.06
2022-08-22T04:47:14.441Z,100311.75
2022-08-22T04:49:57.106Z,100312.78
2022-08-22T04:52:37.808Z,100313.59
2022-08-22T04:55:38.166Z,100304.81
2022-08-22T04:58:23.601Z,100310.00
2022-08-22T05:01:16.595Z,100321.59
2022-08-22T05:03:52.821Z,100325.75
2022-08-22T05:06:23.608Z,100326.16
2022-08-22T05:08:53.859Z,100341.94
2022-08-22T05:11:23.812Z,100329.91
2022-08-22T05:14:02.670Z,100334.59
2022-08-22T05:16:36.761Z,100342.97
2022-08-22T05:19:16.914Z,100358.47
2022-08-22T05:21:49.691Z,100351.69
2022-08-22T05:24:23.475Z,100350.78
2022-08-22T05:26:57.738Z,100347.63
2022-08-22T05:29:30.439Z,100341.81
2022-08-22T05:32:06.182Z,100344.97
2022-08-22T05:34:38.925Z,100341.59
2022-08-22T05:37:17.839Z,100337.28
2022-08-22T05:39:51.274Z,100342.09
2022-08-22T05:42:27.133Z,100339.06
2022-08-22T05:44:55.570Z,100344.25
2022-08-22T05:47:29.063Z,100354.06
2022-08-22T05:50:08.763Z,100354.63
2022-08-22T05:53:01.155Z,100362.06
2022-08-22T05:55:32.932Z,100363.94
2022-08-22T05:58:16.903Z,100364.22
2022-08-22T06:00:49.003Z,100361.50
2022-08-22T06:03:19.704Z,100365.06
2022-08-22T06:05:55.903Z,100366.41
2022-08-22T06:08:57.789Z,100365.72
2022-08-22T06:11:34.169Z,100367.41
2022-08-22T06:14:17.141Z,100377.28
2022-08-22T06:16:55.788Z,100373.31
2022-08-22T06:19:24.387Z,100382.25
2022-08-22T06:21:54.953Z,100381.06
2022-08-22T06:24:27.746Z,100384.81
2022-08-22T06:27:01.711Z,100379.06
2022-08-22T06:29:49.408Z,100392.25
2022-08-22T06:32:38.243Z,100389.78
2022-08-22T06:35:18.652Z,100391.94
2022-08-22T06:37:49.333Z,100396.28
2022-08-22T06:40:17.863Z,100399.22
2022-08-22T06:42:50.572Z,100394.47
2022-08-22T06:45:32.406Z,100394.28
2022-08-22T06:48:21.762Z,100394.53
2022-08-22T06:50:56.101Z,100394.69
2022-08-22T06:53:37.229Z,100397.19
2022-08-22T06:56:11.418Z,100404.69
2022-08-22T06:58:43.462Z,100412.13
2022-08-22T07:01:22.305Z,100413.72
2022-08-22T07:04:05.164Z,100416.09
2022-08-22T07:06:37.257Z,100416.00
2022-08-22T07:09:07.017Z,100408.41
2022-08-22T07:11:39.075Z,100411.81
2022-08-22T07:14:11.359Z,100410.47
2022-08-22T07:16:53.964Z,100424.50
2022-08-22T07:19:37.044Z,100406.91
2022-08-22T07:22:27.017Z,100406.84
2022-08-22T07:25:16.032Z,100404.75
2022-08-22T07:27:52.660Z,100408.59
2022-08-22T07:30:27.835Z,100415.75
2022-08-22T07:33:25.220Z,100419.34
2022-08-22T07:36:01.965Z,100404.78
2022-08-22T07:38:42.945Z,100397.91
2022-08-22T07:41:16.984Z,100403.97
2022-08-22T07:44:16.744Z,100400.03
2022-08-22T07:46:57.188Z,100393.75
2022-08-22T07:49:29.603Z,100394.28
2022-08-22T07:52:08.154Z,100392.69
2022-08-22T07:55:03.824Z,100407.59
2022-08-22T07:57:38.383Z,100401.34
2022-08-22T08:00:14.106Z,100406.69
2022-08-22T08:02:54.496Z,100416.50
2022-08-22T08:05:24.800Z,100410.03
2022-08-22T08:07:54.710Z,100412.13
2022-08-22T08:10:30.205Z,100402.41
2022-08-22T08:13:03.800Z,100418.59
2022-08-22T08:15:35.024Z,100413.59
2022-08-22T08:18:05.542Z,100420.41
2022-08-22T08:20:36.405Z,100419.91
2022-08-22T08:23:08.904Z,100405.50
2022-08-22T08:26:05.623Z,100407.03
2022-08-22T08:28:39.888Z,100397.56
2022-08-22T08:31:23.165Z,100407.44
2022-08-22T08:33:59.037Z,100419.72
2022-08-22T08:36:37.955Z,100414.44
2022-08-22T08:39:21.361Z,100410.31
2022-08-22T08:42:28.783Z,100415.28
2022-08-22T08:45:18.860Z,100413.50
2022-08-22T08:48:05.136Z,100405.56
2022-08-22T08:50:59.445Z,100404.00
2022-08-22T08:53:48.230Z,100416.66
2022-08-22T08:56:33.666Z,100409.91
2022-08-22T08:59:43.164Z,100411.28
2022-08-22T09:02:23.596Z,100409.88
2022-08-22T09:05:19.728Z,100403.19
2022-08-22T09:07:53.076Z,100402.94
2022-08-22T09:10:52.074Z,100405.13
2022-08-22T09:13:40.981Z,100408.09
2022-08-22T09:16:45.567Z,100412.28
2022-08-22T09:19:58.092Z,100403.41
2022-08-22T09:22:33.363Z,100406.16
2022-08-22T09:28:28.392Z,100410.50
2022-08-22T09:31:16.859Z,100402.63
2022-08-22T09:34:17.444Z,100405.50
2022-08-22T09:37:14.013Z,100406.41
2022-08-22T09:43:07.239Z,100408.25
2022-08-22T09:45:47.117Z,100416.41
2022-08-22T09:48:37.961Z,100406.75
2022-08-22T09:51:31.975Z,100418.31
2022-08-22T09:54:05.698Z,100414.44
2022-08-22T09:56:52.619Z,100414.63
2022-08-22T09:59:54.946Z,100418.78
2022-08-22T10:02:44.041Z,100413.81
2022-08-22T10:05:40.402Z,100419.91
2022-08-22T10:08:39.525Z,100413.66
2022-08-22T10:11:22.973Z,100410.38
2022-08-22T10:14:01.679Z,100423.19
2022-08-22T10:17:13.639Z,100425.13
2022-08-22T10:20:17.648Z,100419.56
2022-08-22T10:22:59.154Z,100422.00
2022-08-22T10:25:29.884Z,100417.16
2022-08-22T10:28:10.485Z,100426.91
2022-08-22T10:31:08.514Z,100421.38
2022-08-22T10:33:47.427Z,100426.84
2022-08-22T10:36:22.337Z,100421.63
2022-08-22T10:38:56.103Z,100426.22
2022-08-22T10:41:52.934Z,100437.63
2022-08-22T10:44:27.418Z,100435.50
2022-08-22T10:47:04.418Z,100424.25
2022-08-22T10:49:44.679Z,100434.63
2022-08-22T10:52:26.099Z,100435.34
2022-08-22T10:55:05.833Z,100437.06
2022-08-22T10:58:09.041Z,100429.88
2022-08-22T11:00:56.345Z,100427.41
2022-08-22T11:03:42.502Z,100437.81
2022-08-22T11:06:23.754Z,100430.69
2022-08-22T11:09:13.632Z,100431.44
2022-08-22T11:12:08.777Z,100428.44
2022-08-22T11:14:38.973Z,100433.69
2022-08-22T11:17:54.218Z,100430.66
2022-08-22T11:20:40.094Z,100441.22
2022-08-22T11:23:28.550Z,100429.03
2022-08-22T11:26:13.422Z,100431.56
2022-08-22T11:29:02.764Z,100424.22
2022-08-22T11:31:52.950Z,100435.13
2022-08-22T11:34:46.029Z,100415.56
2022-08-22T11:37:16.848Z,100436.50
2022-08-22T11:40:01.403Z,100435.63
2022-08-22T11:42:37.864Z,100444.03
2022-08-22T11:45:22.999Z,100441.53
2022-08-22T11:48:02.659Z,100434.47
2022-08-22T11:50:39.168Z,100442.22
2022-08-22T11:53:24.841Z,100439.66
2022-08-22T11:56:17.002Z,100439.94
2022-08-22T11:59:14.293Z,100448.16
2022-08-22T12:01:52.882Z,100444.66
2022-08-22T12:04:26.096Z,100440.25
2022-08-22T12:07:02.324Z,100434.91
2022-08-22T12:09:50.867Z,100441.19
2022-08-22T12:12:55.939Z,100434.38
2022-08-22T12:15:33.448Z,100437.03
2022-08-22T12:18:21.644Z,100442.09
2022-08-22T12:20:52.537Z,100449.66
2022-08-22T12:23:49.221Z,100448.97
2022-08-22T12:26:35.741Z,100442.16
2022-08-22T12:29:20.227Z,100435.72
2022-08-22T12:32:28.526Z,100448.59
2022-08-22T12:35:18.637Z,100440.59
2022-08-22T12:38:28.003Z,100439.72
2022-08-22T12:41:02.755Z,100438.09
2022-08-22T12:43:56.716Z,100445.44
2022-08-22T12:46:36.090Z,100437.81
2022-08-22T12:49:23.504Z,100433.75
2022-08-22T12:52:11.636Z,100436.69
2022-08-22T12:55:02.275Z,100428.25
2022-08-22T12:57:39.545Z,100433.09
2022-08-22T13:00:22.961Z,100428.56
2022-08-22T13:02:55.067Z,100419.25
2022-08-22T13:05:27.354Z,100429.59
2022-08-22T13:08:04.393Z,100424.50
2022-08-22T13:10:46.010Z,100422.53
2022-08-22T13:13:31.437Z,100422.88
2022-08-22T13:16:11.693Z,100420.41
2022-08-22T13:19:07.569Z,100417.94
2022-08-22T13:21:48.315Z,100423.25
2022-08-22T13:24:39.217Z,100424.88
2022-08-22T13:27:17.252Z,100429.97
2022-08-22T13:29:59.718Z,100446.16
2022-08-22T13:32:48.121Z,100437.28
2022-08-22T13:35:58.845Z,100434.56
2022-08-22T13:38:48.803Z,100442.13
2022-08-22T13:41:28.652Z,100450.88
2022-08-22T13:44:16.626Z,100454.59
2022-08-22T13:47:13.223Z,100451.06
2022-08-22T13:49:41.240Z,100451.06
2022-08-22T13:52:29.009Z,100450.16
2022-08-22T13:54:57.547Z,100459.41
2022-08-22T13:57:45.603Z,100459.75
2022-08-22T14:00:28.497Z,100466.50
2022-08-22T14:03:22.775Z,100454.75
2022-08-22T14:06:06.222Z,100454.34
2022-08-22T14:08:46.098Z,100462.03
2022-08-22T14:11:25.531Z,100460.19
2022-08-22T14:14:03.800Z,100451.00
2022-08-22T14:16:34.189Z,100469.19
2022-08-22T14:19:07.393Z,100456.13
2022-08-22T14:21:59.514Z,100453.41
2022-08-22T14:24:45.330Z,100462.91
2022-08-22T14:27:26.974Z,100454.91
2022-08-22T14:29:58.789Z,100454.91
2022-08-22T14:32:29.673Z,100457.41
2022-08-22T14:35:33.601Z,100455.56
2022-08-22T14:38:27.416Z,100465.84
2022-08-22T14:41:16.038Z,100459.97
2022-08-22T14:44:10.344Z,100465.22
2022-08-22T14:46:57.546Z,100465.88
2022-08-22T14:49:49.462Z,100466.91
2022-08-22T14:52:34.031Z,100463.34
2022-08-22T14:55:08.651Z,100454.75
2022-08-22T14:57:44.210Z,100461.25
2022-08-22T15:00:13.619Z,100460.19
2022-08-22T15:02:42.396Z,100453.88
2022-08-22T15:05:22.408Z,100464.59
2022-08-22T15:07:56.280Z,100460.41
2022-08-22T15:10:31.674Z,100463.75
2022-08-22T15:13:07.990Z,100449.69
2022-08-22T15:15:53.363Z,100454.72
2022-08-22T15:18:28.700Z,100454.94
2022-08-22T15:21:21.069Z,100447.59
2022-08-22T15:23:56.004Z,100462.50
2022-08-22T15:26:50.130Z,100458.50
2022-08-22T15:29:21.671Z,100453.03
2022-08-22T15:31:59.936Z,100444.41
2022-08-22T15:34:34.256Z,100447.38
2022-08-22T15:37:25.950Z,100447.78
2022-08-22T15:40:12.345Z,100446.72
2022-08-22T15:42:47.431Z,100443.38
2022-08-22T15:45:28.583Z,100446.53
2022-08-22T15:47:56.495Z,100434.75
2022-08-22T15:50:33.103Z,100425.91
2022-08-22T15:53:11.551Z,100449.88
2022-08-22T15:56:07.782Z,100436.84
2022-08-22T15:58:40.407Z,100438.53
2022-08-22T16:01:23.988Z,100432.22
2022-08-22T16:04:14.634Z,100432.88
2022-08-22T16:06:52.594Z,100442.09
2022-08-22T16:09:38.539Z,100443.59
2022-08-22T16:12:26.230Z,100434.31
2022-08-22T16:14:54.621Z,100425.28
2022-08-22T16:17:30.772Z,100439.78
2022-08-22T16:20:19.575Z,100433.47
2022-08-22T16:23:06.564Z,100426.97
2022-08-22T16:25:45.876Z,100428.44
2022-08-22T16:28:36.149Z,100433.28
2022-08-22T16:31:23.639Z,100429.03
2022-08-22T16:33:51.639Z,100428.00
2022-08-22T16:36:43.774Z,100417.50
2022-08-22T16:39:23.670Z,100430.47
2022-08-22T16:41:54.733Z,100431.94
2022-08-22T16:44:30.858Z,100433.44
2022-08-22T16:47:12.419Z,100429.63
2022-08-22T16:50:24.456Z,100423.53
2022-08-22T16:52:57.622Z,100433.63
2022-08-22T16:55:31.179Z,100437.59
2022-08-22T16:58:06.789Z,100442.63
2022-08-22T17:01:12.654Z,100436.31
2022-08-22T17:03:48.820Z,100447.28
2022-08-22T17:06:57.657Z,100440.34
2022-08-22T17:09:59.642Z,100430.22
2022-08-22T17:12:33.195Z,100436.72
2022-08-22T17:15:29.844Z,100436.72
2022-08-22T17:18:30.993Z,100441.34
2022-08-22T17:21:25.421Z,100439.66
2022-08-22T17:24:32.201Z,100444.94
2022-08-22T17:27:31.188Z,100436.94
2022-08-22T17:30:48.223Z,100435.66
2022-08-22T17:33:31.062Z,100449.53
2022-08-22T17:36:29.429Z,100437.97
2022-08-22T17:39:22.030Z,100443.63
2022-08-22T17:42:08.544Z,100450.75
2022-08-22T17:45:08.063Z,100444.06
2022-08-22T17:47:51.482Z,100456.06
2022-08-22T17:50:26.946Z,100456.84
2022-08-22T17:53:04.605Z,100453.94
2022-08-22T17:55:51.254Z,100459.19
2022-08-22T17:58:37.902Z,100456.03
2022-08-22T18:01:57.532Z,100462.72
2022-08-22T18:04:57.793Z,100466.28
2022-08-22T18:07:51.798Z,100457.22
2022-08-22T18:10:35.898Z,100458.66
2022-08-22T18:13:12.553Z,100455.72
2022-08-22T18:15:57.687Z,100462.44
2022-08-22T18:18:33.638Z,100470.00
2022-08-22T18:21:07.313Z,100470.19
2022-08-22T18:23:54.043Z,100470.31
2022-08-22T18:26:38.397Z,100470.50
2022-08-22T18:29:12.193Z,100475.97
2022-08-22T18:31:54.974Z,100492.75
2022-08-22T18:34:41.055Z,100496.66
2022-08-22T18:37:35.337Z,100495.06
2022-08-22T18:40:08.566Z,100495.28
2022-08-22T18:42:48.028Z,100496.88
2022-08-22T18:45:44.685Z,100496.88
2022-08-22T18:48:34.330Z,100497.03
2022-08-22T18:51:24.778Z,100501.13
2022-08-22T18:54:04.747Z,100497.72
2022-08-22T18:56:33.237Z,100500.59
2022-08-22T18:59:17.905Z,100505.06
2022-08-22T19:02:10.124Z,100506.41
2022-08-22T19:05:05.398Z,100501.56
2022-08-22T19:07:55.552Z,100503.69
2022-08-22T19:11:16.783Z,100502.25
2022-08-22T19:14:13.343Z,100506.41
2022-08-22T19:17:11.905Z,100507.75
2022-08-22T19:20:14.359Z,100506.91
2022-08-22T19:22:43.218Z,100497.50
2022-08-22T19:25:17.266Z,100494.41
2022-08-22T19:28:06.415Z,100492.31
2022-08-22T19:30:36.531Z,100496.13
2022-08-22T19:33:10.879Z,100497.78
2022-08-22T19:35:50.144Z,100491.06
2022-08-22T19:38:55.313Z,100499.47
2022-08-22T19:41:46.115Z,100494.13
2022-08-22T19:44:37.836Z,100486.78
2022-08-22T19:47:29.012Z,100492.63
2022-08-22T19:50:07.697Z,100495.19
2022-08-22T19:52:49.558Z,100496.78
2022-08-22T19:55:29.832Z,100509.41
2022-08-22T19:58:33.057Z,100502.69
2022-08-22T20:01:40.842Z,100503.06
2022-08-22T20:04:47.150Z,100510.25
2022-08-22T20:07:36.222Z,100502.00
2022-08-22T20:10:21.598Z,100498.00
2022-08-22T20:13:07.712Z,100510.06
2022-08-22T20:16:07.244Z,100497.03
2022-08-22T20:18:55.638Z,100494.00
2022-08-22T20:21:58.641Z,100496.22
2022-08-22T20:24:57.020Z,100491.34
2022-08-22T20:27:32.585Z,100498.56
2022-08-22T20:30:29.597Z,100497.72
2022-08-22T20:33:20.759Z,100502.63
2022-08-22T20:35:55.831Z,100491.78
2022-08-22T20:38:30.129Z,100484.28
2022-08-22T20:41:03.956Z,100489.69
2022-08-22T20:43:54.027Z,100493.44
2022-08-22T20:46:24.354Z,100492.97
2022-08-22T20:48:55.361Z,100485.38
2022-08-22T20:51:26.213Z,100469.41
2022-08-22T20:54:15.697Z,100475.28
2022-08-22T20:56:58.475Z,100480.38
2022-08-22T20:59:36.579Z,100475.16
2022-08-22T21:02:24.936Z,100483.78
2022-08-22T21:05:08.224Z,100473.94
2022-08-22T21:07:41.789Z,100478.38
2022-08-22T21:10:39.170Z,100473.38
2022-08-22T21:13:12.098Z,100483.59
2022-08-22T21:15:52.587Z,100477.31
2022-08-22T21:18:38.185Z,100468.56
2022-08-22T21:21:17.004Z,100462.81
2022-08-22T21:23:54.036Z,100479.63
2022-08-22T21:26:36.700Z,100459.25
2022-08-22T21:29:19.889Z,100472.50
2022-08-22T21:31:57.844Z,100473.31
2022-08-22T21:34:52.301Z,100471.69
2022-08-22T21:37:38.325Z,100457.41
2022-08-22T21:40:14.752Z,100449.59
2022-08-22T21:42:45.765Z,100454.03
2022-08-22T21:45:39.311Z,100463.09
2022-08-22T21:48:33.490Z,100462.47
2022-08-22T21:51:24.893Z,100457.34
2022-08-22T21:54:18.274Z,100449.78
2022-08-22T21:56:46.828Z,100448.38
2022-08-22T21:59:58.677Z,100457.47
2022-08-22T22:02:40.831Z,100455.00
2022-08-22T22:05:10.117Z,100453.41
2022-08-22T22:07:44.641Z,100447.75
2022-08-22T22:10:21.114Z,100461.41
2022-08-22T22:12:52.150Z,100451.16
2022-08-22T22:15:25.390Z,100451.84
2022-08-22T22:17:54.448Z,100442.31
2022-08-22T22:20:24.101Z,100452.47
2022-08-22T22:22:51.312Z,100446.16
2022-08-22T22:25:39.193Z,100450.38
2022-08-22T22:28:15.609Z,100450.75
2022-08-22T22:30:45.366Z,100441.03
2022-08-22T22:33:12.811Z,100438.63
2022-08-22T22:35:40.800Z,100432.84
2022-08-22T22:38:09.017Z,100434.78
2022-08-22T22:40:36.248Z,100436.84
2022-08-22T22:43:03.954Z,100438.88
2022-08-22T22:45:31.430Z,100439.50
2022-08-22T22:47:58.729Z,100417.22
2022-08-22T22:50:26.116Z,100421.03
2022-08-22T22:52:54.259Z,100417.13
2022-08-22T22:55:24.569Z,100428.53
2022-08-22T22:57:58.564Z,100421.03
2022-08-22T23:00:31.296Z,100425.66
2022-08-22T23:03:02.595Z,100431.66
2022-08-22T23:05:32.057Z,100424.16
2022-08-22T23:07:59.551Z,100415.13
2022-08-22T23:10:28.713Z,100407.34
2022-08-22T23:12:56.198Z,100399.31
2022-08-22T23:15:23.733Z,100402.22
2022-08-22T23:17:51.139Z,100402.34
2022-08-22T23:20:19.140Z,100396.75
2022-08-22T23:22:46.453Z,100390.28
2022-08-22T23:25:14.450Z,100394.19
2022-08-22T23:27:42.501Z,100400.31
2022-08-22T23:30:10.755Z,100387.16
2022-08-22T23:32:38.393Z,100390.94
2022-08-22T23:35:06.696Z,100394.06
2022-08-22T23:37:34.160Z,100404.44
2022-08-22T23:40:01.500Z,100401.09
2022-08-22T23:42:29.620Z,100392.50
2022-08-22T23:44:56.864Z,100402.34
2022-08-22T23:47:24.195Z,100393.53
2022-08-22T23:49:53.114Z,100411.59
2022-08-22T23:52:20.976Z,100404.25
2022-08-22T23:54:48.282Z,100408.25
2022-08-22T23:57:27.522Z,100402.75
2022-08-22T23:59:57.859Z,100392.75
